Time;durP1;ratioP1;P1;durP2;ratioP2;P2;SDS_P1;SDS_P2;PMS_P1;PMS_P2;Temp;Humidity;BMP_temperature;BMP_pressure;BME280_temperature;BME280_humidity;BME280_pressure;Samples;Min_cycle;Max_cycle;Signal;HPM_P1;HPM_P2
2022/04/14 00:01:53;;;;;;;24.08;19.50;;;12.70;81.70;;;;;;5011328;28;20616;-75
2022/04/14 00:04:18;;;;;;;23.38;20.65;;;12.60;81.80;;;;;;5012920;28;20041;-75
2022/04/14 00:06:44;;;;;;;25.80;21.85;;;12.60;81.80;;;;;;5013094;28;20038;-76
2022/04/14 00:09:10;;;;;;;26.40;21.15;;;12.60;81.80;;;;;;5011948;28;20030;-75
2022/04/14 00:11:35;;;;;;;28.23;22.40;;;12.60;81.90;;;;;;5018666;28;20344;-75
2022/04/14 00:14:01;;;;;;;30.25;22.55;;;12.50;82.00;;;;;;5013621;28;20030;-76
2022/04/14 00:16:26;;;;;;;28.40;22.73;;;12.50;82.10;;;;;;5010489;28;20034;-75
2022/04/14 00:18:54;;;;;;;25.73;21.58;;;12.40;82.20;;;;;;5025016;28;20124;-76
2022/04/14 00:21:19;;;;;;;28.17;22.00;;;12.40;82.40;;;;;;5003937;28;20065;-75
2022/04/14 00:23:45;;;;;;;29.73;21.48;;;12.40;82.50;;;;;;5011637;28;20026;-75
2022/04/14 00:26:11;;;;;;;27.17;21.83;;;12.30;82.50;;;;;;5004882;28;20092;-76
2022/04/14 00:28:36;;;;;;;27.10;22.00;;;12.30;82.60;;;;;;5002297;28;20397;-76
2022/04/14 00:31:04;;;;;;;29.25;22.73;;;12.30;82.70;;;;;;5011069;28;20046;-75
2022/04/14 00:33:30;;;;;;;29.63;24.73;;;12.20;82.70;;;;;;5014412;28;20041;-75
2022/04/14 00:35:56;;;;;;;32.25;24.00;;;12.20;82.70;;;;;;5012810;28;20037;-75
2022/04/14 00:38:22;;;;;;;29.75;24.13;;;12.10;82.80;;;;;;5008295;28;20095;-75
2022/04/14 00:40:49;;;;;;;33.88;27.77;;;12.20;82.80;;;;;;5011083;28;20046;-75
2022/04/14 00:43:16;;;;;;;33.90;26.92;;;12.10;82.80;;;;;;5014633;28;20076;-76
2022/04/14 00:45:42;;;;;;;32.95;25.30;;;12.10;82.90;;;;;;5013196;28;20099;-75
2022/04/14 00:48:08;;;;;;;30.08;25.83;;;12.10;82.90;;;;;;5006641;28;20034;-77
2022/04/14 00:50:34;;;;;;;34.85;27.60;;;12.00;83.00;;;;;;5013635;28;20038;-77
2022/04/14 00:53:00;;;;;;;31.60;27.48;;;11.90;83.10;;;;;;5016952;28;20029;-74
2022/04/14 00:55:26;;;;;;;27.55;24.38;;;11.90;83.30;;;;;;5012341;28;20442;-75
2022/04/14 00:57:51;;;;;;;27.23;24.13;;;11.80;83.30;;;;;;5009800;28;20143;-75
2022/04/14 01:00:17;;;;;;;32.90;25.73;;;11.80;83.40;;;;;;5009567;28;20171;-74
2022/04/14 01:02:44;;;;;;;27.40;24.40;;;11.80;83.50;;;;;;5017092;28;20030;-75
2022/04/14 01:05:10;;;;;;;28.80;25.15;;;11.70;83.60;;;;;;5006628;28;20133;-75
2022/04/14 01:07:37;;;;;;;28.95;24.02;;;11.70;83.50;;;;;;5007670;28;20034;-75
2022/04/14 01:10:03;;;;;;;32.70;24.08;;;11.60;83.60;;;;;;5011794;28;20116;-75
2022/04/14 01:12:30;;;;;;;29.38;25.73;;;11.60;83.70;;;;;;5010891;28;20051;-77
2022/04/14 01:14:56;;;;;;;30.02;24.33;;;11.60;83.70;;;;;;5016328;28;20033;-76
2022/04/14 01:17:22;;;;;;;30.92;25.48;;;11.50;83.50;;;;;;5005996;28;20370;-76
2022/04/14 01:19:48;;;;;;;27.65;22.77;;;11.50;83.30;;;;;;5016003;28;20064;-75
2022/04/14 01:22:24;;;;;;;28.77;23.63;;;11.40;83.30;;;;;;5012538;28;20155;-75
2022/04/14 01:24:55;;;;;;;30.38;24.25;;;11.40;83.50;;;;;;5009026;28;20121;-75
2022/04/14 01:27:22;;;;;;;32.75;23.33;;;11.40;83.60;;;;;;5007933;28;20048;-76
2022/04/14 01:29:51;;;;;;;29.55;24.42;;;11.30;83.70;;;;;;5013296;28;20045;-74
2022/04/14 01:32:23;;;;;;;30.75;25.10;;;11.30;83.80;;;;;;5016600;28;20116;-75
2022/04/14 01:34:50;;;;;;;35.13;26.50;;;11.30;83.80;;;;;;5009727;28;20036;-75
2022/04/14 01:37:16;;;;;;;31.52;25.10;;;11.30;83.90;;;;;;5013162;28;20033;-76
2022/04/14 01:39:43;;;;;;;29.42;23.13;;;11.20;84.10;;;;;;5008078;28;20094;-74
2022/04/14 01:42:08;;;;;;;29.75;23.52;;;11.20;84.20;;;;;;5009249;28;20469;-75
2022/04/14 01:44:34;;;;;;;29.80;24.90;;;11.20;84.10;;;;;;5007703;28;20061;-75
2022/04/14 01:47:01;;;;;;;28.17;22.95;;;11.10;84.10;;;;;;5014339;28;20037;-76
2022/04/14 01:49:26;;;;;;;28.10;22.27;;;11.10;84.10;;;;;;4999934;28;20330;-75
2022/04/14 01:51:52;;;;;;;26.58;22.35;;;11.10;84.20;;;;;;5015254;28;20040;-75
2022/04/14 01:54:18;;;;;;;25.77;22.02;;;11.00;84.10;;;;;;4989375;28;20034;-75
2022/04/14 01:56:44;;;;;;;27.00;22.08;;;11.10;84.00;;;;;;5003781;28;20499;-75
2022/04/14 01:59:10;;;;;;;29.45;22.83;;;11.00;83.60;;;;;;5007562;28;20120;-75
2022/04/14 02:01:36;;;;;;;27.38;22.65;;;10.90;83.50;;;;;;5007065;28;20064;-75
2022/04/14 02:04:07;;;;;;;28.98;21.60;;;10.90;83.70;;;;;;5016477;28;20034;-75
2022/04/14 02:06:33;;;;;;;28.90;23.83;;;10.90;84.00;;;;;;5012098;28;20588;-75
2022/04/14 02:08:58;;;;;;;28.67;23.63;;;10.90;84.30;;;;;;5016895;28;20179;-75
2022/04/14 02:11:24;;;;;;;28.88;24.42;;;10.90;84.60;;;;;;5010924;28;20038;-75
2022/04/14 02:13:50;;;;;;;30.15;22.67;;;10.90;84.80;;;;;;5013449;28;20037;-76
2022/04/14 02:16:16;;;;;;;27.83;23.73;;;10.80;84.80;;;;;;5006679;28;20037;-75
2022/04/14 02:18:42;;;;;;;28.98;23.80;;;10.80;84.80;;;;;;5013852;28;20489;-76
2022/04/14 02:21:07;;;;;;;27.35;23.55;;;10.80;84.90;;;;;;5005260;28;20033;-75
2022/04/14 02:23:33;;;;;;;30.50;24.95;;;10.80;85.00;;;;;;5013302;28;20045;-74
2022/04/14 02:25:59;;;;;;;30.25;24.33;;;10.70;85.10;;;;;;5013250;28;20036;-75
2022/04/14 02:28:25;;;;;;;29.05;24.35;;;10.70;85.30;;;;;;5006870;28;20477;-75
2022/04/14 02:30:50;;;;;;;27.77;23.77;;;10.70;85.40;;;;;;5008519;28;20096;-76
2022/04/14 02:33:17;;;;;;;29.00;24.10;;;10.70;85.50;;;;;;5003284;28;20073;-76
2022/04/14 02:35:43;;;;;;;30.73;25.88;;;10.70;85.60;;;;;;5009702;28;20420;-76
2022/04/14 02:38:09;;;;;;;29.50;24.42;;;10.70;85.70;;;;;;5013175;28;20463;-76
2022/04/14 02:40:34;;;;;;;32.75;24.65;;;10.70;85.70;;;;;;5008660;28;20045;-75
2022/04/14 02:43:00;;;;;;;29.98;25.15;;;10.70;85.50;;;;;;5005136;28;20077;-75
2022/04/14 02:45:26;;;;;;;31.00;25.52;;;10.70;85.50;;;;;;5017170;28;20042;-75
2022/04/14 02:47:53;;;;;;;30.63;24.80;;;10.70;85.60;;;;;;5012091;28;20034;-75
2022/04/14 02:50:21;;;;;;;28.40;24.55;;;10.70;85.70;;;;;;5009521;28;20041;-76
2022/04/14 02:52:47;;;;;;;27.65;23.77;;;10.60;85.80;;;;;;5009136;28;20033;-75
2022/04/14 02:55:14;;;;;;;31.70;25.88;;;10.60;85.80;;;;;;5003894;28;20064;-75
2022/04/14 02:57:41;;;;;;;27.23;24.02;;;10.60;85.90;;;;;;5012781;28;20056;-75
2022/04/14 03:00:09;;;;;;;30.25;25.17;;;10.60;86.00;;;;;;5014044;28;20049;-75
2022/04/14 03:02:35;;;;;;;29.17;24.52;;;10.60;86.20;;;;;;5006628;28;20037;-76
2022/04/14 03:05:02;;;;;;;29.52;25.10;;;10.60;86.10;;;;;;5010744;28;20057;-76
2022/04/14 03:07:28;;;;;;;29.25;25.08;;;10.60;86.20;;;;;;5014949;28;20033;-75
2022/04/14 03:09:54;;;;;;;28.65;24.90;;;10.50;86.10;;;;;;5012398;28;20068;-75
2022/04/14 03:12:20;;;;;;;30.83;25.55;;;10.50;86.10;;;;;;5008414;28;20128;-75
2022/04/14 03:14:50;;;;;;;30.33;24.50;;;10.40;86.10;;;;;;5004269;28;20129;-74
2022/04/14 03:17:15;;;;;;;29.85;23.60;;;10.40;86.20;;;;;;5016246;28;20147;-74
2022/04/14 03:19:41;;;;;;;28.48;23.90;;;10.40;86.10;;;;;;5006083;28;20258;-75
2022/04/14 03:22:07;;;;;;;29.58;24.42;;;10.30;86.20;;;;;;5011113;28;20049;-75
2022/04/14 03:24:33;;;;;;;30.77;25.25;;;10.30;86.20;;;;;;5007629;28;20050;-76
2022/04/14 03:26:58;;;;;;;28.05;24.02;;;10.20;86.20;;;;;;5009427;28;20048;-74
2022/04/14 03:29:24;;;;;;;29.77;24.52;;;10.20;86.20;;;;;;5014558;28;20605;-74
2022/04/14 03:31:50;;;;;;;30.17;24.27;;;10.20;86.20;;;;;;5002723;28;20056;-75
2022/04/14 03:34:15;;;;;;;28.38;22.92;;;10.10;86.20;;;;;;5008692;28;20033;-75
2022/04/14 03:36:41;;;;;;;30.13;25.27;;;10.10;86.20;;;;;;5008920;28;20124;-73
2022/04/14 03:39:07;;;;;;;26.58;23.77;;;10.10;86.10;;;;;;5003090;28;20554;-75
2022/04/14 03:41:32;;;;;;;27.38;24.40;;;10.00;86.20;;;;;;5007467;28;20042;-74
2022/04/14 03:43:58;;;;;;;26.33;23.50;;;10.10;86.00;;;;;;5006947;28;20049;-74
2022/04/14 03:46:24;;;;;;;31.27;24.35;;;10.00;86.00;;;;;;5016842;28;20088;-74
2022/04/14 03:48:49;;;;;;;29.20;24.05;;;10.00;86.10;;;;;;5012749;28;20092;-74
2022/04/14 03:51:16;;;;;;;31.42;24.92;;;10.00;86.10;;;;;;5010018;28;20041;-75
2022/04/14 03:53:42;;;;;;;29.45;22.80;;;9.90;86.10;;;;;;5004354;28;20104;-74
2022/04/14 03:56:08;;;;;;;30.27;25.27;;;9.90;86.20;;;;;;5010834;28;20029;-75
2022/04/14 03:58:34;;;;;;;28.42;23.83;;;9.90;86.30;;;;;;5006971;28;21072;-75
2022/04/14 04:01:00;;;;;;;31.75;25.27;;;9.80;86.30;;;;;;5005588;28;20127;-74
2022/04/14 04:03:25;;;;;;;30.98;24.30;;;9.80;86.40;;;;;;5004277;28;20052;-74
2022/04/14 04:05:52;;;;;;;32.88;25.40;;;9.80;86.40;;;;;;5010304;28;20135;-74
2022/04/14 04:08:18;;;;;;;31.65;24.75;;;9.80;86.40;;;;;;5014061;28;20111;-76
2022/04/14 04:10:44;;;;;;;27.85;23.60;;;9.70;86.30;;;;;;5010489;28;20037;-74
2022/04/14 04:13:10;;;;;;;32.55;24.23;;;9.70;86.40;;;;;;5016138;28;20049;-74
2022/04/14 04:15:36;;;;;;;31.88;24.88;;;9.70;86.30;;;;;;5020822;28;20365;-74
2022/04/14 04:18:01;;;;;;;27.80;23.80;;;9.60;86.30;;;;;;5025871;28;20032;-74
2022/04/14 04:20:27;;;;;;;28.92;23.73;;;9.60;86.30;;;;;;5017434;28;20037;-74
2022/04/14 04:22:53;;;;;;;28.65;24.85;;;9.60;86.40;;;;;;5010324;28;20041;-76
2022/04/14 04:25:19;;;;;;;29.42;24.05;;;9.60;86.40;;;;;;5014528;28;20073;-75
2022/04/14 04:27:44;;;;;;;29.50;23.25;;;9.60;86.40;;;;;;5026212;28;20096;-76
2022/04/14 04:30:10;;;;;;;29.60;22.40;;;9.60;86.30;;;;;;5019262;28;20128;-75
2022/04/14 04:32:36;;;;;;;28.80;23.42;;;9.50;86.30;;;;;;5012171;28;20235;-75
2022/04/14 04:35:03;;;;;;;32.90;24.65;;;9.60;86.30;;;;;;5021873;28;20030;-75
2022/04/14 04:37:29;;;;;;;33.40;25.50;;;9.60;86.40;;;;;;5013395;28;20437;-74
2022/04/14 04:39:55;;;;;;;27.90;24.27;;;9.50;86.20;;;;;;5014209;28;20033;-74
2022/04/14 04:42:20;;;;;;;29.08;23.10;;;9.50;86.20;;;;;;5008275;28;20053;-75
2022/04/14 04:44:46;;;;;;;29.55;23.73;;;9.50;86.30;;;;;;5004813;28;20041;-74
2022/04/14 04:47:12;;;;;;;30.00;24.65;;;9.40;86.30;;;;;;5013552;28;20033;-74
2022/04/14 04:49:37;;;;;;;28.88;23.35;;;9.40;86.40;;;;;;5013506;28;20030;-74
2022/04/14 04:52:03;;;;;;;32.05;24.20;;;9.40;86.20;;;;;;5006238;28;20112;-74
2022/04/14 04:54:29;;;;;;;31.27;23.75;;;9.40;86.30;;;;;;5013656;28;20468;-76
2022/04/14 04:56:54;;;;;;;32.65;25.65;;;9.40;86.30;;;;;;5021739;28;20378;-75
2022/04/14 04:59:21;;;;;;;31.50;25.02;;;9.30;86.30;;;;;;5008332;28;20103;-75
2022/04/14 05:01:47;;;;;;;33.97;25.85;;;9.30;86.50;;;;;;5009910;28;20041;-75
2022/04/14 05:04:12;;;;;;;33.45;27.15;;;9.40;86.40;;;;;;5013644;28;20037;-75
2022/04/14 05:06:38;;;;;;;33.08;26.20;;;9.40;86.50;;;;;;5009721;28;20029;-74
2022/04/14 05:09:04;;;;;;;31.35;26.70;;;9.40;86.50;;;;;;5013181;28;20041;-75
2022/04/14 05:11:30;;;;;;;35.20;25.98;;;9.40;86.60;;;;;;5009924;28;20033;-76
2022/04/14 05:13:56;;;;;;;34.30;27.75;;;9.40;86.60;;;;;;5007052;28;20065;-75
2022/04/14 05:16:22;;;;;;;39.65;27.15;;;9.40;86.70;;;;;;5021547;28;20053;-76
2022/04/14 05:18:48;;;;;;;33.33;26.42;;;9.40;86.80;;;;;;5013741;28;20037;-74
2022/04/14 05:21:14;;;;;;;34.53;26.13;;;9.40;86.70;;;;;;5012880;28;20042;-75
2022/04/14 05:23:40;;;;;;;32.05;25.55;;;9.50;86.70;;;;;;5002561;28;20037;-74
2022/04/14 05:26:06;;;;;;;34.10;27.00;;;9.50;86.70;;;;;;5009606;28;20083;-74
2022/04/14 05:28:31;;;;;;;32.88;25.92;;;9.60;86.70;;;;;;5011159;28;20376;-74
2022/04/14 05:30:57;;;;;;;34.63;26.00;;;9.60;86.70;;;;;;5010455;28;20057;-74
2022/04/14 05:33:23;;;;;;;31.13;25.85;;;9.60;86.60;;;;;;5008798;28;20036;-74
2022/04/14 05:35:49;;;;;;;32.08;24.63;;;9.70;86.60;;;;;;5006932;28;20120;-75
2022/04/14 05:38:14;;;;;;;29.92;25.83;;;9.70;86.60;;;;;;5009192;28;20045;-75
2022/04/14 05:40:41;;;;;;;32.40;26.52;;;9.80;86.60;;;;;;5020029;28;20033;-75
2022/04/14 05:43:17;;;;;;;31.83;24.58;;;9.90;86.50;;;;;;5004355;28;20034;-74
2022/04/14 05:45:49;;;;;;;33.30;27.95;;;9.90;86.40;;;;;;5012643;28;20042;-74
2022/04/14 05:48:16;;;;;;;30.02;25.85;;;9.90;86.40;;;;;;5009398;28;20037;-74
2022/04/14 05:50:43;;;;;;;31.13;25.17;;;10.00;86.40;;;;;;5023075;28;20282;-74
2022/04/14 05:53:09;;;;;;;29.08;24.77;;;10.10;86.30;;;;;;5017733;28;20029;-74
2022/04/14 05:55:35;;;;;;;31.55;25.60;;;10.10;86.30;;;;;;5011908;28;20037;-75
2022/04/14 05:58:05;;;;;;;33.80;24.55;;;10.10;86.30;;;;;;5004190;28;20049;-75
2022/04/14 06:00:31;;;;;;;32.17;25.38;;;10.20;86.40;;;;;;5004890;28;20479;-75
2022/04/14 06:02:59;;;;;;;31.92;24.00;;;10.20;86.30;;;;;;5007908;28;20029;-75
2022/04/14 06:05:26;;;;;;;32.50;24.75;;;10.30;86.30;;;;;;5004231;28;20038;-74
2022/04/14 06:07:52;;;;;;;30.27;25.05;;;10.40;86.40;;;;;;5009688;28;20072;-75
2022/04/14 06:10:18;;;;;;;29.80;23.25;;;10.50;86.50;;;;;;5010685;28;20453;-74
2022/04/14 06:12:44;;;;;;;28.88;23.13;;;10.50;86.50;;;;;;5003857;28;20073;-74
2022/04/14 06:15:10;;;;;;;30.67;24.83;;;10.60;86.50;;;;;;5006810;28;20060;-74
2022/04/14 06:17:36;;;;;;;32.08;24.27;;;10.60;86.40;;;;;;5007567;28;20033;-75
2022/04/14 06:20:03;;;;;;;31.02;24.73;;;10.70;86.40;;;;;;4998111;28;20038;-75
2022/04/14 06:22:29;;;;;;;34.08;25.17;;;10.80;86.60;;;;;;5020705;28;20037;-73
2022/04/14 06:24:58;;;;;;;30.70;24.45;;;10.90;86.50;;;;;;5005442;28;20033;-73
2022/04/14 06:27:23;;;;;;;30.67;24.15;;;11.00;86.40;;;;;;5012313;28;20042;-73
2022/04/14 06:29:49;;;;;;;31.75;24.38;;;11.10;86.30;;;;;;5002347;28;20048;-73
2022/04/14 06:32:15;;;;;;;29.50;24.48;;;11.10;86.30;;;;;;5001875;28;20199;-72
2022/04/14 06:34:40;;;;;;;27.25;22.42;;;11.20;86.30;;;;;;5005548;28;20395;-72
2022/04/14 06:37:06;;;;;;;28.13;23.20;;;11.20;86.00;;;;;;5002949;28;20037;-72
2022/04/14 06:39:32;;;;;;;29.17;23.77;;;11.40;85.90;;;;;;5002646;28;20103;-73
2022/04/14 06:41:57;;;;;;;26.40;21.90;;;11.50;85.60;;;;;;5004745;28;20095;-73
2022/04/14 06:44:23;;;;;;;28.70;23.40;;;11.60;85.50;;;;;;5005780;28;20497;-73
2022/04/14 06:46:49;;;;;;;30.92;23.40;;;11.70;85.30;;;;;;5002134;28;20061;-72
2022/04/14 06:49:15;;;;;;;29.08;20.70;;;11.80;84.90;;;;;;5011253;28;20041;-72
2022/04/14 06:51:41;;;;;;;28.10;21.45;;;11.80;84.80;;;;;;5010196;28;20069;-72
2022/04/14 06:54:07;;;;;;;32.55;20.88;;;12.00;84.60;;;;;;5009369;28;20501;-73
2022/04/14 06:56:32;;;;;;;28.98;20.38;;;12.10;84.20;;;;;;5001586;28;20045;-73
2022/04/14 06:58:58;;;;;;;24.20;20.58;;;12.10;84.10;;;;;;5006481;28;20082;-72
2022/04/14 07:01:23;;;;;;;26.92;20.15;;;12.30;84.20;;;;;;5007221;28;20053;-72
2022/04/14 07:03:50;;;;;;;27.88;18.42;;;12.50;83.90;;;;;;5007322;28;20029;-73
2022/04/14 07:06:16;;;;;;;31.13;18.88;;;12.60;83.30;;;;;;5004450;28;20030;-73
2022/04/14 07:08:41;;;;;;;25.35;17.58;;;12.70;82.90;;;;;;4995858;28;20119;-71
2022/04/14 07:11:07;;;;;;;24.30;15.52;;;12.80;82.80;;;;;;5000373;28;20380;-72
2022/04/14 07:13:33;;;;;;;22.33;15.82;;;13.00;82.10;;;;;;5003653;28;20065;-72
2022/04/14 07:16:00;;;;;;;24.25;16.08;;;13.30;81.70;;;;;;5006817;28;20112;-72
2022/04/14 07:18:26;;;;;;;22.98;15.63;;;13.50;81.30;;;;;;4997599;28;20570;-73
2022/04/14 07:20:52;;;;;;;21.63;13.15;;;13.70;80.40;;;;;;4997633;28;20084;-73
2022/04/14 07:23:17;;;;;;;22.85;13.52;;;13.80;79.20;;;;;;4995217;28;20046;-72
2022/04/14 07:25:44;;;;;;;22.10;13.45;;;13.80;79.40;;;;;;5001500;28;20041;-73
2022/04/14 07:28:10;;;;;;;21.45;13.38;;;13.90;79.10;;;;;;5000035;28;20157;-73
2022/04/14 07:30:38;;;;;;;24.25;13.30;;;14.10;78.50;;;;;;5000087;28;20164;-73
2022/04/14 07:33:05;;;;;;;22.38;12.77;;;14.20;78.40;;;;;;4994515;28;20041;-73
2022/04/14 07:35:32;;;;;;;21.20;12.32;;;14.30;78.10;;;;;;5002857;28;20034;-73
2022/04/14 07:37:58;;;;;;;22.80;12.70;;;14.60;77.30;;;;;;5001938;28;20045;-72
2022/04/14 07:40:24;;;;;;;21.23;13.63;;;14.60;77.00;;;;;;5005873;28;20511;-73
2022/04/14 07:42:50;;;;;;;23.27;13.35;;;14.70;76.70;;;;;;5013098;28;20142;-73
2022/04/14 07:45:17;;;;;;;21.58;12.57;;;14.80;76.70;;;;;;5006219;28;20042;-72
2022/04/14 07:47:44;;;;;;;25.38;15.00;;;14.80;76.50;;;;;;5011858;28;20041;-73
2022/04/14 07:50:10;;;;;;;22.55;14.98;;;14.90;76.40;;;;;;5012630;28;20085;-72
2022/04/14 07:52:49;;;;;;;22.00;13.02;;;15.00;75.30;;;;;;5011417;28;20041;-72
2022/04/14 07:55:32;;;;;;;24.70;13.32;;;15.10;76.10;;;;;;5004106;28;20037;-72
2022/04/14 07:58:06;;;;;;;23.70;12.02;;;15.30;75.30;;;;;;5014483;28;20028;-73
2022/04/14 08:00:33;;;;;;;23.42;13.85;;;15.40;75.70;;;;;;5019334;28;20042;-72
2022/04/14 08:03:00;;;;;;;25.55;12.60;;;15.50;74.80;;;;;;5005354;28;20029;-72
2022/04/14 08:05:32;;;;;;;24.27;12.63;;;15.40;74.40;;;;;;5012858;28;20050;-72
2022/04/14 08:07:58;;;;;;;22.60;13.55;;;15.40;74.50;;;;;;5004479;28;20041;-73
2022/04/14 08:10:24;;;;;;;23.83;14.35;;;15.60;74.40;;;;;;5004198;28;20112;-72
2022/04/14 08:12:49;;;;;;;22.33;13.23;;;15.90;73.30;;;;;;4997768;28;20065;-72
2022/04/14 08:15:15;;;;;;;22.13;12.68;;;16.10;72.80;;;;;;5007167;28;20034;-72
2022/04/14 08:17:42;;;;;;;22.35;12.05;;;16.40;72.10;;;;;;5003541;28;20442;-72
2022/04/14 08:20:09;;;;;;;25.45;15.93;;;16.40;72.30;;;;;;5004642;28;20502;-72
2022/04/14 08:22:50;;;;;;;20.42;12.63;;;16.60;71.70;;;;;;5003929;28;20058;-72
2022/04/14 08:25:22;;;;;;;23.58;12.70;;;16.80;70.80;;;;;;5012292;28;20425;-72
2022/04/14 08:27:49;;;;;;;20.23;11.90;;;16.70;70.80;;;;;;5013299;28;20445;-75
2022/04/14 08:30:17;;;;;;;20.90;12.57;;;16.60;70.80;;;;;;5009504;28;20037;-74
2022/04/14 08:32:43;;;;;;;20.73;12.32;;;16.80;70.70;;;;;;5011812;28;20116;-71
2022/04/14 08:35:09;;;;;;;22.20;12.18;;;16.90;70.80;;;;;;4999630;28;20140;-73
2022/04/14 08:37:35;;;;;;;21.25;12.50;;;16.80;70.20;;;;;;5009443;28;20037;-71
2022/04/14 08:40:01;;;;;;;20.63;12.32;;;17.00;70.20;;;;;;5006478;28;20427;-72
2022/04/14 08:42:35;;;;;;;16.08;11.02;;;17.30;69.50;;;;;;5015656;28;20436;-73
2022/04/14 08:45:02;;;;;;;;;;;17.50;68.10;;;;;;5001918;28;20033;-73
2022/04/14 08:47:29;;;;;;;18.83;12.27;;;17.60;68.80;;;;;;5007290;28;20459;-71
2022/04/14 08:49:57;;;;;;;18.20;10.77;;;17.60;68.20;;;;;;5019316;28;20057;-72
2022/04/14 08:52:25;;;;;;;16.60;10.70;;;17.70;66.90;;;;;;5006049;28;20132;-73
2022/04/14 08:54:52;;;;;;;17.75;12.00;;;17.90;67.80;;;;;;5002965;28;20414;-72
2022/04/14 08:57:18;;;;;;;17.58;12.15;;;18.10;65.90;;;;;;5009989;28;20034;-72
2022/04/14 08:59:45;;;;;;;23.17;12.60;;;18.50;65.80;;;;;;5004313;28;20432;-73
2022/04/14 09:02:17;;;;;;;18.98;11.98;;;18.40;64.50;;;;;;5006348;28;20431;-71
2022/04/14 09:04:43;;;;;;;18.63;13.05;;;18.10;66.50;;;;;;5005334;28;20071;-72
2022/04/14 09:07:10;;;;;;;21.02;12.27;;;18.10;65.80;;;;;;4999831;28;20156;-71
2022/04/14 09:09:37;;;;;;;20.25;11.85;;;18.00;65.20;;;;;;5009319;28;20504;-72
2022/04/14 09:12:03;;;;;;;22.92;12.00;;;18.10;65.70;;;;;;5006585;28;20049;-73
2022/04/14 09:14:34;;;;;;;23.75;12.55;;;18.20;65.70;;;;;;4998935;28;20358;-72
2022/04/14 09:17:03;;;;;;;19.08;12.48;;;18.30;64.90;;;;;;5002008;28;20050;-72
2022/04/14 09:19:31;;;;;;;20.70;12.82;;;18.50;64.20;;;;;;5014921;28;20041;-72
2022/04/14 09:22:07;;;;;;;18.40;12.75;;;18.60;64.40;;;;;;5013999;28;20049;-72
2022/04/14 09:24:38;;;;;;;22.20;11.55;;;18.80;64.30;;;;;;5021146;28;21186;-72
2022/04/14 09:27:04;;;;;;;20.50;12.75;;;19.00;62.90;;;;;;5007488;28;20856;-72
2022/04/14 09:29:30;;;;;;;22.02;12.02;;;19.10;62.40;;;;;;5008277;28;20576;-72
2022/04/14 09:31:56;;;;;;;19.88;11.50;;;19.50;63.00;;;;;;5005807;28;20092;-72
2022/04/14 09:34:51;;;;;;;20.23;10.82;;;19.60;61.70;;;;;;5010897;28;20042;-72
2022/04/14 09:37:18;;;;;;;21.17;10.75;;;19.50;61.70;;;;;;5003319;28;20041;-74
2022/04/14 09:39:59;;;;;;;24.40;11.15;;;19.30;61.00;;;;;;5002355;28;20049;-73
2022/04/14 09:42:30;;;;;;;14.45;9.07;;;19.40;62.00;;;;;;5004009;28;20057;-72
2022/04/14 09:45:15;;;;;;;18.50;9.52;;;19.20;60.10;;;;;;4996098;28;20029;-73
2022/04/14 09:47:40;;;;;;;18.30;10.70;;;19.10;61.00;;;;;;5003880;28;20072;-73
2022/04/14 09:50:24;;;;;;;17.05;10.77;;;19.40;61.00;;;;;;5003267;28;20570;-72
2022/04/14 09:53:19;;;;;;;17.80;10.70;;;19.40;61.00;;;;;;5001840;28;20042;-72
2022/04/14 09:55:50;;;;;;;17.08;11.07;;;19.30;60.30;;;;;;5009024;28;20049;-72
2022/04/14 09:58:18;;;;;;;20.85;13.05;;;19.30;61.00;;;;;;5001366;28;20041;-72
2022/04/14 10:00:52;;;;;;;22.23;15.73;;;19.30;61.10;;;;;;5004952;28;20191;-73
2022/04/14 10:03:25;;;;;;;18.30;11.65;;;19.40;62.20;;;;;;4996910;28;20103;-73
2022/04/14 10:05:52;;;;;;;19.17;10.75;;;19.70;60.90;;;;;;4997739;28;20497;-73
2022/04/14 10:08:22;;;;;;;18.13;9.82;;;19.60;59.50;;;;;;4997493;28;20339;-73
2022/04/14 10:10:50;;;;;;;15.48;8.63;;;19.40;58.90;;;;;;5003150;28;20034;-72
2022/04/14 10:13:18;;;;;;;16.38;9.38;;;19.40;59.40;;;;;;5002962;28;20239;-73
2022/04/14 10:15:48;;;;;;;15.43;9.38;;;19.50;59.90;;;;;;5007814;28;20037;-72
2022/04/14 10:18:17;;;;;;;16.05;9.82;;;19.60;59.10;;;;;;5000935;28;20429;-73
2022/04/14 10:20:45;;;;;;;17.05;9.82;;;19.50;59.40;;;;;;5000903;28;20041;-72
2022/04/14 10:23:13;;;;;;;16.70;10.35;;;19.60;59.10;;;;;;4995354;28;20046;-73
2022/04/14 10:25:40;;;;;;;17.70;10.18;;;19.70;60.20;;;;;;5002613;28;20268;-71
2022/04/14 10:28:13;;;;;;;18.67;10.30;;;19.60;59.10;;;;;;4995692;28;20038;-71
2022/04/14 10:30:44;;;;;;;18.40;10.93;;;19.70;59.30;;;;;;4999091;28;20463;-72
2022/04/14 10:33:12;;;;;;;18.83;10.77;;;19.80;58.70;;;;;;5004104;28;20129;-72
2022/04/14 10:35:37;;;;;;;20.83;11.02;;;19.60;58.70;;;;;;5000013;28;20229;-74
2022/04/14 10:38:25;;;;;;;15.52;11.07;;;19.60;59.50;;;;;;5002868;28;20045;-72
2022/04/14 10:40:58;;;;;;;19.08;11.38;;;19.80;58.20;;;;;;5011517;28;20600;-73
2022/04/14 10:43:26;;;;;;;19.98;11.43;;;19.60;59.40;;;;;;4997427;28;20135;-73
2022/04/14 10:45:54;;;;;;;16.52;11.75;;;19.50;59.10;;;;;;4998540;28;20049;-73
2022/04/14 10:48:28;;;;;;;17.50;11.90;;;19.10;60.20;;;;;;4997300;28;20087;-73
2022/04/14 10:51:28;;;;;;;16.75;11.30;;;19.10;60.70;;;;;;5017582;28;20037;-73
2022/04/14 10:54:00;;;;;;;19.02;10.32;;;19.00;59.50;;;;;;5013607;28;20072;-72
2022/04/14 10:56:34;;;;;;;16.23;10.82;;;19.20;60.20;;;;;;5006155;28;20034;-74
2022/04/14 10:59:16;;;;;;;18.02;11.75;;;19.10;60.20;;;;;;5001564;28;20180;-74
2022/04/14 11:01:47;;;;;;;16.75;10.90;;;19.20;60.00;;;;;;5009301;28;20037;-71
2022/04/14 11:04:32;;;;;;;16.33;11.48;;;19.40;59.80;;;;;;5003185;28;20038;-71
2022/04/14 11:07:18;;;;;;;16.33;10.82;;;19.40;60.10;;;;;;5011824;28;20127;-73
2022/04/14 11:09:50;;;;;;;20.23;12.07;;;19.50;59.70;;;;;;5005487;28;20034;-73
2022/04/14 11:12:20;;;;;;;17.48;12.10;;;19.40;60.50;;;;;;4995444;28;20037;-75
2022/04/14 11:14:53;;;;;;;16.73;11.90;;;19.20;59.80;;;;;;5006160;28;20535;-73
2022/04/14 11:17:37;;;;;;;16.20;10.40;;;18.80;61.20;;;;;;5005892;28;20045;-73
2022/04/14 11:20:23;;;;;;;18.03;12.73;;;18.80;60.30;;;;;;5000379;28;20042;-73
2022/04/14 11:23:20;;;;;;;17.88;11.88;;;18.80;60.70;;;;;;4995569;28;20380;-73
2022/04/14 11:25:52;;;;;;;20.00;11.10;;;18.70;60.50;;;;;;4998148;28;20068;-74
2022/04/14 11:28:17;;;;;;;14.80;10.23;;;18.90;60.20;;;;;;5006518;28;20171;-73
2022/04/14 11:30:44;;;;;;;16.45;11.45;;;19.10;59.90;;;;;;4997394;28;21621;-74
2022/04/14 11:33:25;;;;;;;16.30;11.70;;;19.30;58.80;;;;;;4996669;28;20042;-74
2022/04/14 11:35:51;;;;;;;20.10;11.85;;;19.50;58.70;;;;;;5003274;28;20037;-73
2022/04/14 11:38:48;;;;;;;15.75;11.55;;;19.40;58.20;;;;;;5007561;28;20053;-72
2022/04/14 11:41:37;;;;;;;18.25;10.95;;;19.50;58.20;;;;;;5006624;28;20072;-73
2022/04/14 11:44:20;;;;;;;19.45;11.50;;;19.70;56.60;;;;;;5005675;28;20106;-73
2022/04/14 11:46:47;;;;;;;14.73;10.48;;;20.10;55.60;;;;;;5007723;28;20038;-73
2022/04/14 11:49:18;;;;;;;13.82;10.10;;;19.90;54.40;;;;;;4990415;28;20112;-74
2022/04/14 11:52:05;;;;;;;17.63;11.88;;;19.80;55.00;;;;;;4983877;28;20030;-74
2022/04/14 11:54:30;;;;;;;19.73;13.32;;;19.80;58.80;;;;;;4997802;28;20029;-73
2022/04/14 11:57:01;;;;;;;19.63;12.55;;;19.50;60.80;;;;;;4999784;28;20065;-71
2022/04/14 11:59:35;;;;;;;18.20;12.20;;;19.50;61.60;;;;;;5014023;28;20034;-73
2022/04/14 12:02:20;;;;;;;21.48;13.50;;;19.30;62.10;;;;;;4997265;28;20537;-73
2022/04/14 12:04:51;;;;;;;19.30;13.45;;;19.40;61.60;;;;;;5001629;28;20360;-74
2022/04/14 12:07:18;;;;;;;21.55;13.55;;;19.50;62.70;;;;;;5003830;28;20069;-73
2022/04/14 12:09:45;;;;;;;19.40;13.02;;;20.10;61.20;;;;;;5003877;28;20037;-74
2022/04/14 12:12:18;;;;;;;18.90;12.65;;;20.20;60.40;;;;;;5014773;28;20611;-74
2022/04/14 12:14:46;;;;;;;21.13;13.27;;;20.10;60.50;;;;;;5001784;28;20086;-73
2022/04/14 12:17:13;;;;;;;19.33;13.85;;;20.10;59.80;;;;;;5010493;28;20528;-73
2022/04/14 12:19:43;;;;;;;17.25;12.88;;;19.90;59.20;;;;;;5009384;28;20037;-71
2022/04/14 12:22:10;;;;;;;19.60;13.38;;;20.10;59.80;;;;;;4997796;28;20044;-73
2022/04/14 12:24:36;;;;;;;18.40;12.73;;;20.20;58.30;;;;;;4997796;28;20038;-71
2022/04/14 12:27:02;;;;;;;19.77;13.13;;;20.10;58.40;;;;;;5006561;28;20038;-73
2022/04/14 12:29:28;;;;;;;19.55;13.43;;;20.30;57.60;;;;;;5008261;28;20125;-72
2022/04/14 12:32:11;;;;;;;21.52;14.73;;;20.40;55.80;;;;;;5007810;28;20045;-72
2022/04/14 12:34:42;;;;;;;22.52;15.00;;;20.20;56.80;;;;;;5003846;28;20535;-72